sensor_id;sensor_type;location;lat;lon;timestamp;temperature;humidity
23744;DHT22;12052;53.478;10.182;2023-05-07T00:00:19;8.70;99.90
23744;DHT22;12052;53.478;10.182;2023-05-07T00:02:45;8.70;99.90
23744;DHT22;12052;53.478;10.182;2023-05-07T00:05:11;8.70;99.90
23744;DHT22;12052;53.478;10.182;2023-05-07T00:07:36;8.70;99.90
23744;DHT22;12052;53.478;10.182;2023-05-07T00:10:03;8.70;99.90
23744;DHT22;12052;53.478;10.182;2023-05-07T00:12:29;8.70;99.90
23744;DHT22;12052;53.478;10.182;2023-05-07T00:15:00;8.80;99.90
23744;DHT22;12052;53.478;10.182;2023-05-07T00:17:25;8.80;99.90
23744;DHT22;12052;53.478;10.182;2023-05-07T00:19:51;8.70;99.90
23744;DHT22;12052;53.478;10.182;2023-05-07T00:22:16;8.80;99.90
23744;DHT22;12052;53.478;10.182;2023-05-07T00:24:42;8.80;99.90
23744;DHT22;12052;53.478;10.182;2023-05-07T00:27:08;8.80;99.90
23744;DHT22;12052;53.478;10.182;2023-05-07T00:29:34;8.80;99.90
23744;DHT22;12052;53.478;10.182;2023-05-07T00:31:59;8.80;99.90
23744;DHT22;12052;53.478;10.182;2023-05-07T00:34:25;8.80;99.90
23744;DHT22;12052;53.478;10.182;2023-05-07T00:36:50;8.80;99.90
23744;DHT22;12052;53.478;10.182;2023-05-07T00:39:16;8.80;99.90
23744;DHT22;12052;53.478;10.182;2023-05-07T00:41:42;8.80;99.90
23744;DHT22;12052;53.478;10.182;2023-05-07T00:44:07;8.80;99.90
23744;DHT22;12052;53.478;10.182;2023-05-07T00:46:34;8.80;99.90
23744;DHT22;12052;53.478;10.182;2023-05-07T00:48:59;8.80;99.90
23744;DHT22;12052;53.478;10.182;2023-05-07T00:51:26;8.90;99.90
23744;DHT22;12052;53.478;10.182;2023-05-07T00:53:53;8.90;99.90
23744;DHT22;12052;53.478;10.182;2023-05-07T00:56:20;8.90;99.90
23744;DHT22;12052;53.478;10.182;2023-05-07T00:58:47;8.80;99.90
23744;DHT22;12052;53.478;10.182;2023-05-07T01:01:12;8.90;99.90
23744;DHT22;12052;53.478;10.182;2023-05-07T01:03:38;8.90;99.90
23744;DHT22;12052;53.478;10.182;2023-05-07T01:06:04;8.80;99.90
23744;DHT22;12052;53.478;10.182;2023-05-07T01:08:32;8.80;99.90
23744;DHT22;12052;53.478;10.182;2023-05-07T01:10:58;8.80;99.90
23744;DHT22;12052;53.478;10.182;2023-05-07T01:13:24;8.80;99.90
23744;DHT22;12052;53.478;10.182;2023-05-07T01:15:51;8.80;99.90
23744;DHT22;12052;53.478;10.182;2023-05-07T01:18:16;8.90;99.90
23744;DHT22;12052;53.478;10.182;2023-05-07T01:20:42;8.90;99.90
23744;DHT22;12052;53.478;10.182;2023-05-07T01:23:08;8.90;99.90
23744;DHT22;12052;53.478;10.182;2023-05-07T01:25:35;8.90;99.90
23744;DHT22;12052;53.478;10.182;2023-05-07T01:28:01;8.90;99.90
23744;DHT22;12052;53.478;10.182;2023-05-07T01:30:27;8.80;99.90
23744;DHT22;12052;53.478;10.182;2023-05-07T01:35:27;8.90;99.90
23744;DHT22;12052;53.478;10.182;2023-05-07T01:37:54;8.90;99.90
23744;DHT22;12052;53.478;10.182;2023-05-07T01:40:20;8.90;99.90
23744;DHT22;12052;53.478;10.182;2023-05-07T01:42:47;8.90;99.90
23744;DHT22;12052;53.478;10.182;2023-05-07T01:45:13;8.90;99.90
23744;DHT22;12052;53.478;10.182;2023-05-07T01:47:39;8.90;99.90
23744;DHT22;12052;53.478;10.182;2023-05-07T01:50:09;8.90;99.90
23744;DHT22;12052;53.478;10.182;2023-05-07T01:52:37;8.90;99.90
23744;DHT22;12052;53.478;10.182;2023-05-07T01:55:03;8.90;99.90
23744;DHT22;12052;53.478;10.182;2023-05-07T01:57:29;8.90;99.90
23744;DHT22;12052;53.478;10.182;2023-05-07T01:59:54;8.90;99.90
23744;DHT22;12052;53.478;10.182;2023-05-07T02:02:20;8.90;99.90
23744;DHT22;12052;53.478;10.182;2023-05-07T02:04:45;8.90;99.90
23744;DHT22;12052;53.478;10.182;2023-05-07T02:07:11;8.90;99.90
23744;DHT22;12052;53.478;10.182;2023-05-07T02:09:36;8.90;99.90
23744;DHT22;12052;53.478;10.182;2023-05-07T02:12:02;8.90;99.90
23744;DHT22;12052;53.478;10.182;2023-05-07T02:14:28;8.90;99.90
23744;DHT22;12052;53.478;10.182;2023-05-07T02:16:53;8.90;99.90
23744;DHT22;12052;53.478;10.182;2023-05-07T02:19:19;8.90;99.90
23744;DHT22;12052;53.478;10.182;2023-05-07T02:21:46;8.90;99.90
23744;DHT22;12052;53.478;10.182;2023-05-07T02:24:12;8.80;99.90
23744;DHT22;12052;53.478;10.182;2023-05-07T02:26:39;8.80;99.90
23744;DHT22;12052;53.478;10.182;2023-05-07T02:29:04;8.80;99.90
23744;DHT22;12052;53.478;10.182;2023-05-07T02:31:30;8.80;99.90
23744;DHT22;12052;53.478;10.182;2023-05-07T02:33:55;8.80;99.90
23744;DHT22;12052;53.478;10.182;2023-05-07T02:36:21;8.80;99.90
23744;DHT22;12052;53.478;10.182;2023-05-07T02:38:46;8.80;99.90
23744;DHT22;12052;53.478;10.182;2023-05-07T02:41:12;8.80;99.90
23744;DHT22;12052;53.478;10.182;2023-05-07T02:43:38;8.80;99.90
23744;DHT22;12052;53.478;10.182;2023-05-07T02:46:04;8.80;99.90
23744;DHT22;12052;53.478;10.182;2023-05-07T02:48:30;8.80;99.90
23744;DHT22;12052;53.478;10.182;2023-05-07T02:50:56;8.80;99.90
23744;DHT22;12052;53.478;10.182;2023-05-07T02:53:22;8.80;99.90
23744;DHT22;12052;53.478;10.182;2023-05-07T02:55:47;8.70;99.90
23744;DHT22;12052;53.478;10.182;2023-05-07T02:58:13;8.70;99.90
23744;DHT22;12052;53.478;10.182;2023-05-07T03:00:39;8.70;99.90
23744;DHT22;12052;53.478;10.182;2023-05-07T03:03:04;8.70;99.90
23744;DHT22;12052;53.478;10.182;2023-05-07T03:05:30;8.80;99.90
23744;DHT22;12052;53.478;10.182;2023-05-07T03:07:55;8.70;99.90
23744;DHT22;12052;53.478;10.182;2023-05-07T03:10:21;8.70;99.90
23744;DHT22;12052;53.478;10.182;2023-05-07T03:12:47;8.70;99.90
23744;DHT22;12052;53.478;10.182;2023-05-07T03:15:12;8.80;99.90
23744;DHT22;12052;53.478;10.182;2023-05-07T03:17:38;8.80;99.90
23744;DHT22;12052;53.478;10.182;2023-05-07T03:20:04;8.70;99.90
23744;DHT22;12052;53.478;10.182;2023-05-07T03:22:30;8.80;99.90
23744;DHT22;12052;53.478;10.182;2023-05-07T03:24:56;8.80;99.90
23744;DHT22;12052;53.478;10.182;2023-05-07T03:27:21;8.80;99.90
23744;DHT22;12052;53.478;10.182;2023-05-07T03:29:47;8.80;99.90
23744;DHT22;12052;53.478;10.182;2023-05-07T03:32:13;8.80;99.90
23744;DHT22;12052;53.478;10.182;2023-05-07T03:34:38;8.80;99.90
23744;DHT22;12052;53.478;10.182;2023-05-07T03:37:04;8.80;99.90
23744;DHT22;12052;53.478;10.182;2023-05-07T03:39:29;8.80;99.90
23744;DHT22;12052;53.478;10.182;2023-05-07T03:41:56;8.80;99.90
23744;DHT22;12052;53.478;10.182;2023-05-07T03:44:22;8.80;99.90
23744;DHT22;12052;53.478;10.182;2023-05-07T03:46:47;8.80;99.90
23744;DHT22;12052;53.478;10.182;2023-05-07T03:49:13;8.80;99.90
23744;DHT22;12052;53.478;10.182;2023-05-07T03:51:38;8.80;99.90
23744;DHT22;12052;53.478;10.182;2023-05-07T03:54:04;8.80;99.90
23744;DHT22;12052;53.478;10.182;2023-05-07T03:56:30;8.80;99.90
23744;DHT22;12052;53.478;10.182;2023-05-07T03:58:56;8.80;99.90
23744;DHT22;12052;53.478;10.182;2023-05-07T04:01:22;8.80;99.90
23744;DHT22;12052;53.478;10.182;2023-05-07T04:03:47;8.80;99.90
23744;DHT22;12052;53.478;10.182;2023-05-07T04:06:13;8.80;99.90
23744;DHT22;12052;53.478;10.182;2023-05-07T04:08:38;8.90;99.90
23744;DHT22;12052;53.478;10.182;2023-05-07T04:11:04;8.90;99.90
23744;DHT22;12052;53.478;10.182;2023-05-07T04:13:30;8.80;99.90
23744;DHT22;12052;53.478;10.182;2023-05-07T04:15:56;8.90;99.90
23744;DHT22;12052;53.478;10.182;2023-05-07T04:18:21;8.90;99.90
23744;DHT22;12052;53.478;10.182;2023-05-07T04:20:48;8.90;99.90
23744;DHT22;12052;53.478;10.182;2023-05-07T04:23:15;8.90;99.90
23744;DHT22;12052;53.478;10.182;2023-05-07T04:25:41;8.90;99.90
23744;DHT22;12052;53.478;10.182;2023-05-07T04:28:06;8.90;99.90
23744;DHT22;12052;53.478;10.182;2023-05-07T04:30:32;8.90;99.90
23744;DHT22;12052;53.478;10.182;2023-05-07T04:32:58;8.90;99.90
23744;DHT22;12052;53.478;10.182;2023-05-07T04:35:23;8.90;99.90
23744;DHT22;12052;53.478;10.182;2023-05-07T04:37:49;8.90;99.90
23744;DHT22;12052;53.478;10.182;2023-05-07T04:40:14;8.90;99.90
23744;DHT22;12052;53.478;10.182;2023-05-07T04:42:41;8.90;99.90
23744;DHT22;12052;53.478;10.182;2023-05-07T04:45:07;8.90;99.90
23744;DHT22;12052;53.478;10.182;2023-05-07T04:47:34;8.90;99.90
23744;DHT22;12052;53.478;10.182;2023-05-07T04:49:59;8.90;99.90
23744;DHT22;12052;53.478;10.182;2023-05-07T04:52:25;8.90;99.90
23744;DHT22;12052;53.478;10.182;2023-05-07T04:54:50;9.00;99.90
23744;DHT22;12052;53.478;10.182;2023-05-07T04:57:16;8.90;99.90
23744;DHT22;12052;53.478;10.182;2023-05-07T04:59:43;9.00;99.90
23744;DHT22;12052;53.478;10.182;2023-05-07T05:02:09;9.00;99.90
23744;DHT22;12052;53.478;10.182;2023-05-07T05:04:35;9.00;99.90
23744;DHT22;12052;53.478;10.182;2023-05-07T05:07:00;9.00;99.90
23744;DHT22;12052;53.478;10.182;2023-05-07T05:09:26;9.00;99.90
23744;DHT22;12052;53.478;10.182;2023-05-07T05:11:51;9.00;99.90
23744;DHT22;12052;53.478;10.182;2023-05-07T05:14:17;9.00;99.90
23744;DHT22;12052;53.478;10.182;2023-05-07T05:16:43;9.10;99.90
23744;DHT22;12052;53.478;10.182;2023-05-07T05:19:08;9.10;99.90
23744;DHT22;12052;53.478;10.182;2023-05-07T05:21:34;9.10;99.90
23744;DHT22;12052;53.478;10.182;2023-05-07T05:23:59;9.10;99.90
23744;DHT22;12052;53.478;10.182;2023-05-07T05:26:25;9.10;99.90
23744;DHT22;12052;53.478;10.182;2023-05-07T05:28:51;9.10;99.90
23744;DHT22;12052;53.478;10.182;2023-05-07T05:31:16;9.10;99.90
23744;DHT22;12052;53.478;10.182;2023-05-07T05:33:42;9.10;99.90
23744;DHT22;12052;53.478;10.182;2023-05-07T05:36:11;9.20;99.90
23744;DHT22;12052;53.478;10.182;2023-05-07T05:38:38;9.20;99.90
23744;DHT22;12052;53.478;10.182;2023-05-07T05:41:04;9.20;99.90
23744;DHT22;12052;53.478;10.182;2023-05-07T05:43:29;9.20;99.90
23744;DHT22;12052;53.478;10.182;2023-05-07T05:45:55;9.20;99.90
23744;DHT22;12052;53.478;10.182;2023-05-07T05:48:21;9.20;99.90
23744;DHT22;12052;53.478;10.182;2023-05-07T05:50:47;9.20;99.90
23744;DHT22;12052;53.478;10.182;2023-05-07T05:53:12;9.20;99.90
23744;DHT22;12052;53.478;10.182;2023-05-07T05:55:38;9.30;99.90
23744;DHT22;12052;53.478;10.182;2023-05-07T05:58:03;9.30;99.90
23744;DHT22;12052;53.478;10.182;2023-05-07T06:00:29;9.30;99.90
23744;DHT22;12052;53.478;10.182;2023-05-07T06:02:55;9.30;99.90
23744;DHT22;12052;53.478;10.182;2023-05-07T06:05:21;9.30;99.90
23744;DHT22;12052;53.478;10.182;2023-05-07T06:07:46;9.30;99.90
23744;DHT22;12052;53.478;10.182;2023-05-07T06:10:12;9.40;99.90
23744;DHT22;12052;53.478;10.182;2023-05-07T06:12:37;9.40;99.90
23744;DHT22;12052;53.478;10.182;2023-05-07T06:15:04;9.40;99.90
23744;DHT22;12052;53.478;10.182;2023-05-07T06:17:29;9.40;99.90
23744;DHT22;12052;53.478;10.182;2023-05-07T06:19:55;9.40;99.90
23744;DHT22;12052;53.478;10.182;2023-05-07T06:22:21;9.40;99.90
23744;DHT22;12052;53.478;10.182;2023-05-07T06:24:47;9.50;99.90
23744;DHT22;12052;53.478;10.182;2023-05-07T06:27:12;9.40;99.90
23744;DHT22;12052;53.478;10.182;2023-05-07T06:29:38;9.40;99.90
23744;DHT22;12052;53.478;10.182;2023-05-07T06:32:11;9.50;99.90
23744;DHT22;12052;53.478;10.182;2023-05-07T06:34:38;9.40;99.90
23744;DHT22;12052;53.478;10.182;2023-05-07T06:37:04;9.40;99.90
23744;DHT22;12052;53.478;10.182;2023-05-07T06:39:30;9.50;99.90
23744;DHT22;12052;53.478;10.182;2023-05-07T06:41:56;9.50;99.90
23744;DHT22;12052;53.478;10.182;2023-05-07T06:44:22;9.50;99.90
23744;DHT22;12052;53.478;10.182;2023-05-07T06:46:47;9.50;99.90
23744;DHT22;12052;53.478;10.182;2023-05-07T06:49:13;9.50;99.90
23744;DHT22;12052;53.478;10.182;2023-05-07T06:51:39;9.60;99.90
23744;DHT22;12052;53.478;10.182;2023-05-07T06:54:05;9.60;99.90
23744;DHT22;12052;53.478;10.182;2023-05-07T06:56:31;9.60;99.90
23744;DHT22;12052;53.478;10.182;2023-05-07T06:58:57;9.60;99.90
23744;DHT22;12052;53.478;10.182;2023-05-07T07:01:23;9.60;99.90
23744;DHT22;12052;53.478;10.182;2023-05-07T07:03:48;9.60;99.90
23744;DHT22;12052;53.478;10.182;2023-05-07T07:06:14;9.70;99.90
23744;DHT22;12052;53.478;10.182;2023-05-07T07:08:39;9.70;99.90
23744;DHT22;12052;53.478;10.182;2023-05-07T07:11:06;9.80;99.90
23744;DHT22;12052;53.478;10.182;2023-05-07T07:13:32;9.80;99.90
23744;DHT22;12052;53.478;10.182;2023-05-07T07:15:57;9.80;99.90
23744;DHT22;12052;53.478;10.182;2023-05-07T07:18:23;9.90;99.90
23744;DHT22;12052;53.478;10.182;2023-05-07T07:20:49;9.90;99.90
23744;DHT22;12052;53.478;10.182;2023-05-07T07:23:14;9.80;99.90
23744;DHT22;12052;53.478;10.182;2023-05-07T07:25:40;9.90;99.90
23744;DHT22;12052;53.478;10.182;2023-05-07T07:28:06;10.00;99.90
23744;DHT22;12052;53.478;10.182;2023-05-07T07:30:32;10.00;99.90
23744;DHT22;12052;53.478;10.182;2023-05-07T07:32:57;10.00;99.90
23744;DHT22;12052;53.478;10.182;2023-05-07T07:35:31;10.00;99.90
23744;DHT22;12052;53.478;10.182;2023-05-07T07:37:57;10.10;99.90
23744;DHT22;12052;53.478;10.182;2023-05-07T07:40:23;10.10;99.90
23744;DHT22;12052;53.478;10.182;2023-05-07T07:42:48;10.20;99.90
23744;DHT22;12052;53.478;10.182;2023-05-07T07:45:14;10.10;99.90
23744;DHT22;12052;53.478;10.182;2023-05-07T07:47:40;10.20;99.90
23744;DHT22;12052;53.478;10.182;2023-05-07T07:50:06;10.20;99.90
23744;DHT22;12052;53.478;10.182;2023-05-07T07:52:32;10.20;99.90
23744;DHT22;12052;53.478;10.182;2023-05-07T07:54:58;10.30;99.90
23744;DHT22;12052;53.478;10.182;2023-05-07T07:57:24;10.30;99.90
23744;DHT22;12052;53.478;10.182;2023-05-07T07:59:50;10.30;99.90
23744;DHT22;12052;53.478;10.182;2023-05-07T08:02:16;10.30;99.90
23744;DHT22;12052;53.478;10.182;2023-05-07T08:04:42;10.40;99.90
23744;DHT22;12052;53.478;10.182;2023-05-07T08:07:09;10.40;99.90
23744;DHT22;12052;53.478;10.182;2023-05-07T08:09:34;10.50;99.90
23744;DHT22;12052;53.478;10.182;2023-05-07T08:12:00;10.50;99.90
23744;DHT22;12052;53.478;10.182;2023-05-07T08:14:26;10.50;99.90
23744;DHT22;12052;53.478;10.182;2023-05-07T08:16:53;10.40;99.90
23744;DHT22;12052;53.478;10.182;2023-05-07T08:19:19;10.40;99.90
23744;DHT22;12052;53.478;10.182;2023-05-07T08:21:45;10.40;99.90
23744;DHT22;12052;53.478;10.182;2023-05-07T08:24:13;10.50;99.90
23744;DHT22;12052;53.478;10.182;2023-05-07T08:26:39;10.60;99.90
23744;DHT22;12052;53.478;10.182;2023-05-07T08:29:05;10.60;99.90
23744;DHT22;12052;53.478;10.182;2023-05-07T08:31:31;10.70;99.90
23744;DHT22;12052;53.478;10.182;2023-05-07T08:33:57;10.60;99.90
23744;DHT22;12052;53.478;10.182;2023-05-07T08:36:23;10.60;99.90
23744;DHT22;12052;53.478;10.182;2023-05-07T08:38:49;10.60;99.90
23744;DHT22;12052;53.478;10.182;2023-05-07T08:41:15;10.60;99.90
23744;DHT22;12052;53.478;10.182;2023-05-07T08:43:41;10.60;99.90
23744;DHT22;12052;53.478;10.182;2023-05-07T08:46:09;10.60;99.90
23744;DHT22;12052;53.478;10.182;2023-05-07T08:48:36;10.70;99.90
23744;DHT22;12052;53.478;10.182;2023-05-07T08:51:02;10.70;99.90
23744;DHT22;12052;53.478;10.182;2023-05-07T08:53:28;10.60;99.90
23744;DHT22;12052;53.478;10.182;2023-05-07T08:55:53;10.60;99.90
23744;DHT22;12052;53.478;10.182;2023-05-07T08:58:19;10.60;99.90
23744;DHT22;12052;53.478;10.182;2023-05-07T09:00:46;10.60;99.90
23744;DHT22;12052;53.478;10.182;2023-05-07T09:03:12;10.70;99.90
23744;DHT22;12052;53.478;10.182;2023-05-07T09:05:39;10.70;99.90
23744;DHT22;12052;53.478;10.182;2023-05-07T09:08:07;10.80;99.90
23744;DHT22;12052;53.478;10.182;2023-05-07T09:10:33;10.90;99.90
23744;DHT22;12052;53.478;10.182;2023-05-07T09:12:59;10.80;99.90
23744;DHT22;12052;53.478;10.182;2023-05-07T09:15:28;10.90;99.90
23744;DHT22;12052;53.478;10.182;2023-05-07T09:17:53;11.00;99.90
23744;DHT22;12052;53.478;10.182;2023-05-07T09:20:19;11.00;99.90
23744;DHT22;12052;53.478;10.182;2023-05-07T09:22:45;11.10;99.90
23744;DHT22;12052;53.478;10.182;2023-05-07T09:25:11;11.10;99.90
23744;DHT22;12052;53.478;10.182;2023-05-07T09:27:37;11.10;99.90
23744;DHT22;12052;53.478;10.182;2023-05-07T09:30:06;11.00;99.90
23744;DHT22;12052;53.478;10.182;2023-05-07T09:32:36;11.10;99.90
23744;DHT22;12052;53.478;10.182;2023-05-07T09:35:05;11.00;99.90
23744;DHT22;12052;53.478;10.182;2023-05-07T09:37:31;11.00;99.90
23744;DHT22;12052;53.478;10.182;2023-05-07T09:39:58;11.00;99.90
23744;DHT22;12052;53.478;10.182;2023-05-07T09:42:24;11.10;99.90
23744;DHT22;12052;53.478;10.182;2023-05-07T09:44:52;11.10;99.90
23744;DHT22;12052;53.478;10.182;2023-05-07T09:47:19;11.20;99.90
23744;DHT22;12052;53.478;10.182;2023-05-07T09:49:47;11.20;99.90
23744;DHT22;12052;53.478;10.182;2023-05-07T09:52:14;11.40;99.90
23744;DHT22;12052;53.478;10.182;2023-05-07T09:54:40;11.50;99.90
23744;DHT22;12052;53.478;10.182;2023-05-07T09:57:10;11.60;99.90
23744;DHT22;12052;53.478;10.182;2023-05-07T09:59:37;11.60;99.90
23744;DHT22;12052;53.478;10.182;2023-05-07T10:02:04;11.70;99.90
23744;DHT22;12052;53.478;10.182;2023-05-07T10:04:31;11.70;99.90
23744;DHT22;12052;53.478;10.182;2023-05-07T10:06:56;11.70;99.90
23744;DHT22;12052;53.478;10.182;2023-05-07T10:09:22;11.70;99.90
23744;DHT22;12052;53.478;10.182;2023-05-07T10:11:49;11.80;99.90
23744;DHT22;12052;53.478;10.182;2023-05-07T10:14:15;11.80;99.90
23744;DHT22;12052;53.478;10.182;2023-05-07T10:16:41;11.80;99.90
23744;DHT22;12052;53.478;10.182;2023-05-07T10:19:08;11.90;99.90
23744;DHT22;12052;53.478;10.182;2023-05-07T10:21:37;12.10;99.90
23744;DHT22;12052;53.478;10.182;2023-05-07T10:26:43;12.30;99.90
23744;DHT22;12052;53.478;10.182;2023-05-07T10:34:28;12.40;99.90
23744;DHT22;12052;53.478;10.182;2023-05-07T10:36:55;12.20;99.90
23744;DHT22;12052;53.478;10.182;2023-05-07T10:39:22;12.30;99.90
23744;DHT22;12052;53.478;10.182;2023-05-07T10:41:48;12.30;99.90
23744;DHT22;12052;53.478;10.182;2023-05-07T10:44:28;12.20;99.90
23744;DHT22;12052;53.478;10.182;2023-05-07T10:49:36;12.30;99.90
23744;DHT22;12052;53.478;10.182;2023-05-07T10:52:21;12.40;99.90
23744;DHT22;12052;53.478;10.182;2023-05-07T10:57:40;12.40;99.90
23744;DHT22;12052;53.478;10.182;2023-05-07T11:05:24;12.60;99.90
23744;DHT22;12052;53.478;10.182;2023-05-07T11:07:55;12.50;99.90
23744;DHT22;12052;53.478;10.182;2023-05-07T11:10:21;12.70;99.90
23744;DHT22;12052;53.478;10.182;2023-05-07T11:12:48;12.70;99.90
23744;DHT22;12052;53.478;10.182;2023-05-07T11:15:15;12.80;99.90
23744;DHT22;12052;53.478;10.182;2023-05-07T11:17:59;13.00;99.90
23744;DHT22;12052;53.478;10.182;2023-05-07T11:20:44;13.10;99.90
23744;DHT22;12052;53.478;10.182;2023-05-07T11:26:06;13.10;99.90
23744;DHT22;12052;53.478;10.182;2023-05-07T11:28:38;13.20;99.90
23744;DHT22;12052;53.478;10.182;2023-05-07T11:31:04;13.30;99.90
23744;DHT22;12052;53.478;10.182;2023-05-07T11:33:30;13.40;99.90
23744;DHT22;12052;53.478;10.182;2023-05-07T11:35:56;13.50;99.90
23744;DHT22;12052;53.478;10.182;2023-05-07T11:38:22;13.60;99.90
23744;DHT22;12052;53.478;10.182;2023-05-07T11:40:59;13.60;99.90
23744;DHT22;12052;53.478;10.182;2023-05-07T11:43:26;13.70;99.90
23744;DHT22;12052;53.478;10.182;2023-05-07T11:45:52;13.90;99.90
23744;DHT22;12052;53.478;10.182;2023-05-07T11:48:18;13.90;99.90
23744;DHT22;12052;53.478;10.182;2023-05-07T11:53:25;13.70;99.90
23744;DHT22;12052;53.478;10.182;2023-05-07T11:55:57;13.90;99.90
23744;DHT22;12052;53.478;10.182;2023-05-07T11:58:24;14.00;99.90
23744;DHT22;12052;53.478;10.182;2023-05-07T12:00:51;14.10;99.90
23744;DHT22;12052;53.478;10.182;2023-05-07T12:03:17;14.20;99.90
23744;DHT22;12052;53.478;10.182;2023-05-07T12:05:46;14.30;99.90
23744;DHT22;12052;53.478;10.182;2023-05-07T12:10:45;14.30;99.90
23744;DHT22;12052;53.478;10.182;2023-05-07T12:13:18;14.10;99.90
23744;DHT22;12052;53.478;10.182;2023-05-07T12:15:44;14.20;99.90
23744;DHT22;12052;53.478;10.182;2023-05-07T12:18:11;14.40;99.90
23744;DHT22;12052;53.478;10.182;2023-05-07T12:20:37;14.50;99.90
23744;DHT22;12052;53.478;10.182;2023-05-07T12:23:02;14.40;99.90
23744;DHT22;12052;53.478;10.182;2023-05-07T12:25:35;14.40;99.90
23744;DHT22;12052;53.478;10.182;2023-05-07T12:28:05;14.70;99.90
23744;DHT22;12052;53.478;10.182;2023-05-07T12:30:32;14.60;99.90
23744;DHT22;12052;53.478;10.182;2023-05-07T12:33:01;14.50;99.90
23744;DHT22;12052;53.478;10.182;2023-05-07T12:35:31;14.40;99.90
23744;DHT22;12052;53.478;10.182;2023-05-07T12:37:58;14.30;99.90
23744;DHT22;12052;53.478;10.182;2023-05-07T12:40:39;14.30;99.90
23744;DHT22;12052;53.478;10.182;2023-05-07T12:43:04;14.20;99.90
23744;DHT22;12052;53.478;10.182;2023-05-07T12:45:30;14.30;99.90
23744;DHT22;12052;53.478;10.182;2023-05-07T12:47:56;14.40;99.90
23744;DHT22;12052;53.478;10.182;2023-05-07T12:50:22;14.40;99.90
23744;DHT22;12052;53.478;10.182;2023-05-07T12:52:48;14.40;99.90
23744;DHT22;12052;53.478;10.182;2023-05-07T12:55:15;14.40;99.90
23744;DHT22;12052;53.478;10.182;2023-05-07T12:57:50;14.40;99.90
23744;DHT22;12052;53.478;10.182;2023-05-07T13:00:17;14.50;99.90
23744;DHT22;12052;53.478;10.182;2023-05-07T13:02:44;14.50;99.90
23744;DHT22;12052;53.478;10.182;2023-05-07T13:05:10;14.70;99.90
23744;DHT22;12052;53.478;10.182;2023-05-07T13:07:36;14.70;99.90
23744;DHT22;12052;53.478;10.182;2023-05-07T13:10:03;14.90;99.90
23744;DHT22;12052;53.478;10.182;2023-05-07T13:12:29;14.70;99.90
23744;DHT22;12052;53.478;10.182;2023-05-07T13:14:54;14.80;99.90
23744;DHT22;12052;53.478;10.182;2023-05-07T13:17:20;14.70;99.90
23744;DHT22;12052;53.478;10.182;2023-05-07T13:19:46;14.80;99.90
23744;DHT22;12052;53.478;10.182;2023-05-07T13:22:11;14.70;99.90
23744;DHT22;12052;53.478;10.182;2023-05-07T13:24:37;14.80;99.90
23744;DHT22;12052;53.478;10.182;2023-05-07T13:27:02;14.80;99.90
23744;DHT22;12052;53.478;10.182;2023-05-07T13:29:28;14.80;99.90
23744;DHT22;12052;53.478;10.182;2023-05-07T13:31:58;14.90;99.90
23744;DHT22;12052;53.478;10.182;2023-05-07T13:34:24;15.00;99.90
23744;DHT22;12052;53.478;10.182;2023-05-07T13:36:50;15.10;99.90
23744;DHT22;12052;53.478;10.182;2023-05-07T13:39:15;15.10;99.90
23744;DHT22;12052;53.478;10.182;2023-05-07T13:41:41;15.20;99.90
23744;DHT22;12052;53.478;10.182;2023-05-07T13:44:07;15.20;99.90
23744;DHT22;12052;53.478;10.182;2023-05-07T13:46:32;15.20;99.90
23744;DHT22;12052;53.478;10.182;2023-05-07T13:48:58;15.30;99.90
23744;DHT22;12052;53.478;10.182;2023-05-07T13:51:24;15.50;99.90
23744;DHT22;12052;53.478;10.182;2023-05-07T13:53:49;15.40;99.90
23744;DHT22;12052;53.478;10.182;2023-05-07T13:56:15;15.50;99.90
23744;DHT22;12052;53.478;10.182;2023-05-07T13:58:41;15.50;99.90
23744;DHT22;12052;53.478;10.182;2023-05-07T14:01:07;15.40;99.90
23744;DHT22;12052;53.478;10.182;2023-05-07T14:03:32;15.30;99.90
23744;DHT22;12052;53.478;10.182;2023-05-07T14:05:59;15.20;99.90
23744;DHT22;12052;53.478;10.182;2023-05-07T14:08:27;15.10;99.90
23744;DHT22;12052;53.478;10.182;2023-05-07T14:10:52;15.20;99.90
23744;DHT22;12052;53.478;10.182;2023-05-07T14:13:18;15.20;99.90
23744;DHT22;12052;53.478;10.182;2023-05-07T14:15:43;15.30;99.90
23744;DHT22;12052;53.478;10.182;2023-05-07T14:18:12;15.30;99.90
23744;DHT22;12052;53.478;10.182;2023-05-07T14:20:38;15.40;99.90
23744;DHT22;12052;53.478;10.182;2023-05-07T14:23:03;15.40;99.90
23744;DHT22;12052;53.478;10.182;2023-05-07T14:25:29;15.40;99.90
23744;DHT22;12052;53.478;10.182;2023-05-07T14:27:55;15.50;99.90
23744;DHT22;12052;53.478;10.182;2023-05-07T14:30:20;15.50;99.90
23744;DHT22;12052;53.478;10.182;2023-05-07T14:32:49;15.60;99.90
23744;DHT22;12052;53.478;10.182;2023-05-07T14:35:15;15.70;99.90
23744;DHT22;12052;53.478;10.182;2023-05-07T14:37:40;15.80;99.90
23744;DHT22;12052;53.478;10.182;2023-05-07T14:40:07;16.00;99.90
23744;DHT22;12052;53.478;10.182;2023-05-07T14:42:32;16.00;99.90
23744;DHT22;12052;53.478;10.182;2023-05-07T14:44:58;16.10;99.90
23744;DHT22;12052;53.478;10.182;2023-05-07T14:47:23;16.20;99.90
23744;DHT22;12052;53.478;10.182;2023-05-07T14:49:49;16.20;99.90
23744;DHT22;12052;53.478;10.182;2023-05-07T14:52:15;16.40;99.90
23744;DHT22;12052;53.478;10.182;2023-05-07T14:54:40;16.50;99.90
23744;DHT22;12052;53.478;10.182;2023-05-07T14:57:08;16.60;99.90
23744;DHT22;12052;53.478;10.182;2023-05-07T14:59:34;16.70;99.90
23744;DHT22;12052;53.478;10.182;2023-05-07T15:02:01;16.70;99.90
23744;DHT22;12052;53.478;10.182;2023-05-07T15:04:26;16.80;99.90
23744;DHT22;12052;53.478;10.182;2023-05-07T15:06:52;16.80;99.90
23744;DHT22;12052;53.478;10.182;2023-05-07T15:09:19;16.70;99.90
23744;DHT22;12052;53.478;10.182;2023-05-07T15:11:45;16.80;99.90
23744;DHT22;12052;53.478;10.182;2023-05-07T15:14:10;16.60;99.90
23744;DHT22;12052;53.478;10.182;2023-05-07T15:16:36;16.80;99.90
23744;DHT22;12052;53.478;10.182;2023-05-07T15:19:01;16.80;99.90
23744;DHT22;12052;53.478;10.182;2023-05-07T15:21:27;16.80;99.90
23744;DHT22;12052;53.478;10.182;2023-05-07T15:23:52;16.80;99.90
23744;DHT22;12052;53.478;10.182;2023-05-07T15:26:18;16.70;99.90
23744;DHT22;12052;53.478;10.182;2023-05-07T15:28:43;16.60;99.90
23744;DHT22;12052;53.478;10.182;2023-05-07T15:31:09;16.40;99.90
23744;DHT22;12052;53.478;10.182;2023-05-07T15:33:35;16.50;99.90
23744;DHT22;12052;53.478;10.182;2023-05-07T15:36:00;16.50;99.90
23744;DHT22;12052;53.478;10.182;2023-05-07T15:38:27;16.50;99.90
23744;DHT22;12052;53.478;10.182;2023-05-07T15:40:52;16.50;99.90
23744;DHT22;12052;53.478;10.182;2023-05-07T15:43:18;16.40;99.90
23744;DHT22;12052;53.478;10.182;2023-05-07T15:45:44;16.40;99.90